createdAt,value
2023-10-18T00:01:02.908Z,3.07
2023-10-18T00:04:05.018Z,2.92
2023-10-18T00:07:07.219Z,2.89
2023-10-18T00:10:09.790Z,2.86
2023-10-18T00:16:15.104Z,2.76
2023-10-18T00:19:16.969Z,2.74
2023-10-18T00:22:18.943Z,2.61
2023-10-18T00:25:23.741Z,2.46
2023-10-18T00:28:25.528Z,2.61
2023-10-18T00:31:28.695Z,2.47
2023-10-18T00:34:31.058Z,2.44
2023-10-18T00:37:33.069Z,2.29
2023-10-18T00:40:35.123Z,2.08
2023-10-18T00:43:38.161Z,2.12
2023-10-18T00:46:40.545Z,2.06
2023-10-18T00:49:43.039Z,2.26
2023-10-18T00:52:45.743Z,2.32
2023-10-18T00:55:54.590Z,2.34
2023-10-18T00:58:59.839Z,2.46
2023-10-18T01:02:08.190Z,2.31
2023-10-18T01:05:13.381Z,1.93
2023-10-18T01:08:15.826Z,1.90
2023-10-18T01:11:28.979Z,1.91
2023-10-18T01:14:32.566Z,1.99
2023-10-18T01:17:44.249Z,1.90
2023-10-18T01:20:47.497Z,1.85
2023-10-18T01:23:55.869Z,1.88
2023-10-18T01:26:58.618Z,1.82
2023-10-18T01:30:00.467Z,1.87
2023-10-18T01:33:02.754Z,1.96
2023-10-18T01:36:06.137Z,1.73
2023-10-18T01:39:21.717Z,1.84
2023-10-18T01:42:24.363Z,1.76
2023-10-18T01:45:40.032Z,1.72
2023-10-18T01:48:42.086Z,1.64
2023-10-18T01:51:47.472Z,1.42
2023-10-18T01:54:49.866Z,1.28
2023-10-18T01:57:51.879Z,1.28
2023-10-18T02:00:57.756Z,1.22
2023-10-18T02:04:01.294Z,1.31
2023-10-18T02:07:03.411Z,1.30
2023-10-18T02:10:06.770Z,1.41
2023-10-18T02:13:11.811Z,1.22
2023-10-18T02:16:21.398Z,1.26
2023-10-18T02:19:23.371Z,1.44
2023-10-18T02:22:25.236Z,1.40
2023-10-18T02:25:48.070Z,1.25
2023-10-18T02:28:50.331Z,1.39
2023-10-18T02:31:58.537Z,1.39
2023-10-18T02:35:00.458Z,1.42
2023-10-18T02:38:09.632Z,1.25
2023-10-18T02:41:18.362Z,1.17
2023-10-18T02:44:23.135Z,1.25
2023-10-18T02:47:24.985Z,1.01
2023-10-18T02:50:27.043Z,1.03
2023-10-18T02:53:28.800Z,1.03
2023-10-18T02:56:34.520Z,1.12
2023-10-18T02:59:36.500Z,1.14
2023-10-18T03:02:39.737Z,1.13
2023-10-18T03:05:42.547Z,1.14
2023-10-18T03:08:50.114Z,1.22
2023-10-18T03:11:54.711Z,1.17
2023-10-18T03:14:56.828Z,1.04
2023-10-18T03:18:01.996Z,1.12
2023-10-18T03:21:10.043Z,0.84
2023-10-18T03:24:13.717Z,0.66
2023-10-18T03:27:15.819Z,0.60
2023-10-18T03:30:24.492Z,0.70
2023-10-18T03:33:29.478Z,0.72
2023-10-18T03:36:35.053Z,0.94
2023-10-18T03:39:36.815Z,0.87
2023-10-18T03:42:40.324Z,0.78
2023-10-18T03:46:08.563Z,0.57
2023-10-18T03:49:11.654Z,0.55
2023-10-18T03:52:13.457Z,0.64
2023-10-18T03:55:18.870Z,0.45
2023-10-18T03:58:24.006Z,0.62
2023-10-18T04:01:28.011Z,0.59
2023-10-18T04:04:35.945Z,0.64
2023-10-18T04:07:37.934Z,0.68
2023-10-18T04:10:41.805Z,0.48
2023-10-18T04:13:43.577Z,0.48
2023-10-18T04:16:48.437Z,0.44
2023-10-18T04:19:50.340Z,0.50
2023-10-18T04:22:52.615Z,0.69
2023-10-18T04:25:59.011Z,0.60
2023-10-18T04:29:05.408Z,0.75
2023-10-18T04:32:17.106Z,0.70
2023-10-18T04:35:26.865Z,0.60
2023-10-18T04:38:31.679Z,0.55
2023-10-18T04:41:33.617Z,0.70
2023-10-18T04:44:36.432Z,0.71
2023-10-18T04:47:41.436Z,0.52
2023-10-18T04:50:52.125Z,0.59
2023-10-18T04:54:17.097Z,0.48
2023-10-18T04:57:23.410Z,0.12
2023-10-18T05:00:51.985Z,0.31
2023-10-18T05:03:54.187Z,0.21
2023-10-18T05:06:57.768Z,0.38
2023-10-18T05:10:06.279Z,0.34
2023-10-18T05:13:26.681Z,0.30
2023-10-18T05:16:28.608Z,0.34
2023-10-18T05:19:32.431Z,0.35
2023-10-18T05:22:42.507Z,0.37
2023-10-18T05:25:47.247Z,0.50
2023-10-18T05:28:51.018Z,0.59
2023-10-18T05:32:38.296Z,0.47
2023-10-18T05:35:49.767Z,0.54
2023-10-18T05:38:52.762Z,0.68
2023-10-18T05:42:02.046Z,0.68
2023-10-18T05:45:04.097Z,0.73
2023-10-18T05:48:14.076Z,0.82
2023-10-18T05:54:32.972Z,0.90
2023-10-18T05:57:35.330Z,1.25
2023-10-18T06:00:37.494Z,1.55
2023-10-18T06:03:42.686Z,1.63
2023-10-18T06:06:44.688Z,1.83
2023-10-18T06:09:48.275Z,1.90
2023-10-18T06:12:57.134Z,1.98
2023-10-18T06:16:03.450Z,2.08
2023-10-18T06:19:07.931Z,2.13
2023-10-18T06:22:29.983Z,2.28
2023-10-18T06:25:36.079Z,2.59
2023-10-18T06:28:39.072Z,2.55
2023-10-18T06:31:48.256Z,2.80
2023-10-18T06:34:57.095Z,2.96
2023-10-18T06:38:03.259Z,3.12
2023-10-18T06:41:12.895Z,3.24
2023-10-18T06:44:14.721Z,3.34
2023-10-18T06:47:16.623Z,3.56
2023-10-18T06:50:28.275Z,3.88
2023-10-18T06:53:30.664Z,4.12
2023-10-18T06:56:40.477Z,4.40
2023-10-18T06:59:48.533Z,5.00
2023-10-18T07:02:51.760Z,5.35
2023-10-18T07:05:54.474Z,5.71
2023-10-18T07:08:57.408Z,5.99
2023-10-18T07:12:04.661Z,6.23
2023-10-18T07:15:10.753Z,6.48
2023-10-18T07:18:15.452Z,6.80
2023-10-18T07:21:20.332Z,6.99
2023-10-18T07:24:22.763Z,7.19
2023-10-18T07:27:30.786Z,7.50
2023-10-18T07:30:41.664Z,7.66
2023-10-18T07:33:45.242Z,7.83
2023-10-18T07:36:47.741Z,8.25
2023-10-18T07:40:01.254Z,8.42
2023-10-18T07:43:13.792Z,8.59
2023-10-18T07:46:18.489Z,8.90
2023-10-18T07:49:20.582Z,9.06
2023-10-18T07:52:23.150Z,9.34
2023-10-18T07:55:25.626Z,9.53
2023-10-18T07:58:27.693Z,9.73
2023-10-18T08:01:48.340Z,9.92
2023-10-18T08:04:52.192Z,10.05
2023-10-18T08:07:54.187Z,10.27
2023-10-18T08:10:58.472Z,10.54
2023-10-18T08:14:00.456Z,10.59
2023-10-18T08:17:10.444Z,10.83
2023-10-18T08:20:39.726Z,11.14
2023-10-18T08:23:41.911Z,11.45
2023-10-18T08:26:53.078Z,11.74
2023-10-18T08:29:56.945Z,11.81
2023-10-18T08:32:59.891Z,11.90
2023-10-18T08:36:08.404Z,12.27
2023-10-18T08:39:10.539Z,12.48
2023-10-18T08:42:15.527Z,12.38
2023-10-18T08:45:24.395Z,12.73
2023-10-18T08:48:30.019Z,12.93
2023-10-18T08:51:32.053Z,13.22
2023-10-18T08:54:35.950Z,13.57
2023-10-18T08:57:37.947Z,13.63
2023-10-18T09:00:40.490Z,13.86
2023-10-18T09:03:42.336Z,13.99
2023-10-18T09:06:44.433Z,14.18
2023-10-18T09:09:55.795Z,14.35
2023-10-18T09:13:01.904Z,14.47
2023-10-18T09:16:06.159Z,14.89
2023-10-18T09:19:11.138Z,15.05
2023-10-18T09:22:13.702Z,15.10
2023-10-18T09:25:15.602Z,15.66
2023-10-18T09:28:38.200Z,15.65
2023-10-18T09:31:55.935Z,16.32
2023-10-18T09:35:05.134Z,16.40
2023-10-18T09:38:09.995Z,15.49
2023-10-18T09:41:11.816Z,16.21
2023-10-18T09:44:15.185Z,16.75
2023-10-18T09:47:19.761Z,16.46
2023-10-18T09:50:25.233Z,17.21
2023-10-18T09:53:27.633Z,17.71
2023-10-18T09:56:38.622Z,17.84
2023-10-18T09:59:48.459Z,18.55
2023-10-18T10:02:54.218Z,19.35
2023-10-18T10:05:58.910Z,19.64
2023-10-18T10:09:14.196Z,19.76
2023-10-18T10:12:17.366Z,19.31
2023-10-18T10:15:19.461Z,20.94
2023-10-18T10:18:38.944Z,21.03
2023-10-18T10:21:43.632Z,21.67
2023-10-18T10:24:56.373Z,22.72
2023-10-18T10:29:01.810Z,21.55
2023-10-18T10:32:06.829Z,21.79
2023-10-18T10:35:16.707Z,23.03
2023-10-18T10:38:22.599Z,23.51
2023-10-18T10:41:32.234Z,23.22
2023-10-18T10:44:37.559Z,24.41
2023-10-18T10:47:46.015Z,22.67
2023-10-18T10:51:09.684Z,25.48
2023-10-18T10:54:12.852Z,26.35
2023-10-18T10:57:16.879Z,27.20
2023-10-18T11:00:38.646Z,26.45
2023-10-18T11:03:54.773Z,27.57
2023-10-18T11:07:10.312Z,29.02
2023-10-18T11:10:18.641Z,30.09
2023-10-18T11:13:24.325Z,29.72
2023-10-18T11:16:26.222Z,29.92
2023-10-18T11:19:31.029Z,27.87
2023-10-18T11:22:33.193Z,30.23
2023-10-18T11:25:41.946Z,28.73
2023-10-18T11:28:43.904Z,28.89
2023-10-18T11:31:46.379Z,29.86
2023-10-18T11:34:48.411Z,28.81
2023-10-18T11:37:50.252Z,30.76
2023-10-18T11:40:52.636Z,32.30
2023-10-18T11:43:54.386Z,34.67
2023-10-18T11:47:03.002Z,35.73
2023-10-18T11:50:05.126Z,33.33
2023-10-18T11:53:11.642Z,35.76
2023-10-18T11:56:14.511Z,34.33
2023-10-18T11:59:16.316Z,36.24
2023-10-18T12:02:18.153Z,36.80
2023-10-18T12:05:25.254Z,35.92
2023-10-18T12:08:36.660Z,34.53
2023-10-18T12:11:41.160Z,33.42
2023-10-18T12:14:43.836Z,33.06
2023-10-18T12:17:47.628Z,29.77
2023-10-18T12:20:52.895Z,29.41
2023-10-18T12:23:57.606Z,30.50
2023-10-18T12:27:00.308Z,28.32
2023-10-18T12:30:32.004Z,28.25
2023-10-18T12:33:35.472Z,28.46
2023-10-18T12:36:40.373Z,28.44
2023-10-18T12:39:47.534Z,27.12
2023-10-18T12:42:49.371Z,28.56
2023-10-18T12:45:54.403Z,27.82
2023-10-18T12:48:58.631Z,27.42
2023-10-18T12:52:03.414Z,27.94
2023-10-18T12:55:24.640Z,28.49
2023-10-18T12:58:30.401Z,27.96
2023-10-18T13:01:34.319Z,26.04
2023-10-18T13:04:39.759Z,25.36
2023-10-18T13:07:44.554Z,26.66
2023-10-18T13:11:00.251Z,26.09
2023-10-18T13:14:06.603Z,26.00
2023-10-18T13:17:12.206Z,26.12
2023-10-18T13:20:17.051Z,26.30
2023-10-18T13:23:20.424Z,24.99
2023-10-18T13:26:28.071Z,24.45
2023-10-18T13:29:30.310Z,23.12
2023-10-18T13:32:34.099Z,23.98
2023-10-18T13:35:36.081Z,24.67
2023-10-18T13:38:45.572Z,25.06
2023-10-18T13:41:48.115Z,24.49
2023-10-18T13:44:50.949Z,23.76
2023-10-18T13:47:52.911Z,22.66
2023-10-18T13:50:59.318Z,23.05
2023-10-18T13:54:02.462Z,23.14
2023-10-18T13:57:05.844Z,22.38
2023-10-18T14:00:08.389Z,22.42
2023-10-18T14:03:10.309Z,22.93
2023-10-18T14:06:13.005Z,23.26
2023-10-18T14:09:15.020Z,21.67
2023-10-18T14:12:16.952Z,22.00
2023-10-18T14:15:20.918Z,21.67
2023-10-18T14:18:26.662Z,20.85
2023-10-18T14:21:31.035Z,20.41
2023-10-18T14:24:33.246Z,19.81
2023-10-18T14:27:36.593Z,20.10
2023-10-18T14:30:38.433Z,19.91
2023-10-18T14:33:57.504Z,19.60
2023-10-18T14:37:03.147Z,19.77
2023-10-18T14:40:11.507Z,19.27
2023-10-18T14:43:14.126Z,18.82
2023-10-18T14:46:23.105Z,18.28
2023-10-18T14:49:24.910Z,18.35
2023-10-18T14:52:28.098Z,18.33
2023-10-18T14:55:29.917Z,18.21
2023-10-18T14:58:33.039Z,18.34
2023-10-18T15:01:36.073Z,18.03
2023-10-18T15:04:37.843Z,17.87
2023-10-18T15:07:39.632Z,17.64
2023-10-18T15:10:46.026Z,17.14
2023-10-18T15:13:49.754Z,16.89
2023-10-18T15:16:51.940Z,16.62
2023-10-18T15:19:54.083Z,16.26
2023-10-18T15:22:58.586Z,15.93
2023-10-18T15:26:04.350Z,15.76
2023-10-18T15:29:09.749Z,15.61
2023-10-18T15:32:15.860Z,15.15
2023-10-18T15:35:18.603Z,14.85
2023-10-18T15:38:20.571Z,14.52
2023-10-18T15:41:24.350Z,14.56
2023-10-18T15:44:26.239Z,14.14
2023-10-18T15:47:28.360Z,13.93
2023-10-18T15:50:31.482Z,13.76
2023-10-18T15:53:38.854Z,13.55
2023-10-18T15:56:47.197Z,13.21
2023-10-18T15:59:50.027Z,13.23
2023-10-18T16:02:52.388Z,12.81
2023-10-18T16:05:54.309Z,12.68
2023-10-18T16:08:56.110Z,12.74
2023-10-18T16:11:59.876Z,12.62
2023-10-18T16:15:01.891Z,12.16
2023-10-18T16:18:04.933Z,12.04
2023-10-18T16:21:11.976Z,11.85
2023-10-18T16:24:14.207Z,11.66
2023-10-18T16:27:17.796Z,11.59
2023-10-18T16:30:19.642Z,11.55
2023-10-18T16:33:23.167Z,11.46
2023-10-18T16:36:25.682Z,11.34
2023-10-18T16:39:29.202Z,11.25
2023-10-18T16:42:31.299Z,11.01
2023-10-18T16:45:36.860Z,10.86
2023-10-18T16:48:40.481Z,10.59
2023-10-18T16:51:43.578Z,10.23
2023-10-18T16:54:45.375Z,10.42
2023-10-18T16:57:47.327Z,10.41
2023-10-18T17:00:56.216Z,10.10
2023-10-18T17:03:58.211Z,10.15
2023-10-18T17:07:00.106Z,10.03
2023-10-18T17:10:02.080Z,9.90
2023-10-18T17:13:05.072Z,9.49
2023-10-18T17:16:07.732Z,9.29
2023-10-18T17:19:09.547Z,9.38
2023-10-18T17:22:11.999Z,9.30
2023-10-18T17:25:18.241Z,9.09
2023-10-18T17:28:20.145Z,8.82
2023-10-18T17:31:22.426Z,8.82
2023-10-18T17:34:24.300Z,8.76
2023-10-18T17:37:26.090Z,8.93
2023-10-18T17:40:27.825Z,8.81
2023-10-18T17:43:29.661Z,8.71
2023-10-18T17:46:31.686Z,8.44
2023-10-18T17:49:33.435Z,8.47
2023-10-18T17:52:37.271Z,8.57
2023-10-18T17:55:38.997Z,8.61
2023-10-18T17:58:42.687Z,8.46
2023-10-18T18:01:46.501Z,8.41
2023-10-18T18:04:50.392Z,8.25
2023-10-18T18:07:54.306Z,8.09
2023-10-18T18:10:56.161Z,8.10
2023-10-18T18:13:59.272Z,8.09
2023-10-18T18:17:01.087Z,7.94
2023-10-18T18:20:09.410Z,7.91
2023-10-18T18:23:11.942Z,8.04
2023-10-18T18:26:18.119Z,7.77
2023-10-18T18:29:20.156Z,7.79
2023-10-18T18:32:22.380Z,7.76
2023-10-18T18:35:24.503Z,7.50
2023-10-18T18:38:26.340Z,7.51
2023-10-18T18:41:28.627Z,7.54
2023-10-18T18:44:30.648Z,7.48
2023-10-18T18:47:32.863Z,7.28
2023-10-18T18:50:36.443Z,7.19
2023-10-18T18:53:38.838Z,7.17
2023-10-18T18:56:41.794Z,7.14
2023-10-18T18:59:43.664Z,7.22
2023-10-18T19:02:51.092Z,7.17
2023-10-18T19:05:53.580Z,7.05
2023-10-18T19:08:55.618Z,6.97
2023-10-18T19:11:57.456Z,6.99
2023-10-18T19:15:00.340Z,6.94
2023-10-18T19:18:02.277Z,6.87
2023-10-18T19:21:10.591Z,6.81
2023-10-18T19:24:12.478Z,6.70
2023-10-18T19:27:14.284Z,6.65
2023-10-18T19:30:18.620Z,6.45
2023-10-18T19:33:20.825Z,6.55
2023-10-18T19:36:22.707Z,6.50
2023-10-18T19:39:28.956Z,6.43
2023-10-18T19:42:31.751Z,6.56
2023-10-18T19:45:33.677Z,6.48
2023-10-18T19:48:35.480Z,6.47
2023-10-18T19:51:37.270Z,6.43
2023-10-18T19:54:39.204Z,6.38
2023-10-18T19:57:41.178Z,6.27
2023-10-18T20:00:43.087Z,6.04
2023-10-18T20:03:45.031Z,6.10
2023-10-18T20:06:46.815Z,6.07
2023-10-18T20:09:48.603Z,6.26
2023-10-18T20:12:50.408Z,6.27
2023-10-18T20:15:53.199Z,6.07
2023-10-18T20:18:54.987Z,6.03
2023-10-18T20:21:56.785Z,5.83
2023-10-18T20:24:58.559Z,5.76
2023-10-18T20:28:00.424Z,5.71
2023-10-18T20:31:03.249Z,5.82
2023-10-18T20:34:05.082Z,5.91
2023-10-18T20:37:07.398Z,5.90
2023-10-18T20:40:11.172Z,5.78
2023-10-18T20:43:13.074Z,5.66
2023-10-18T20:46:17.602Z,5.63
2023-10-18T20:49:21.690Z,5.57
2023-10-18T20:52:32.394Z,5.40
2023-10-18T20:55:34.740Z,5.38
2023-10-18T20:58:36.726Z,5.36
2023-10-18T21:01:41.990Z,5.30
2023-10-18T21:04:49.187Z,5.14
2023-10-18T21:07:51.274Z,5.12
2023-10-18T21:10:53.066Z,4.86
2023-10-18T21:13:55.442Z,4.88
2023-10-18T21:16:57.416Z,4.86
2023-10-18T21:19:59.344Z,4.80
2023-10-18T21:23:01.876Z,4.86
2023-10-18T21:26:13.477Z,4.82
2023-10-18T21:29:15.574Z,4.78
2023-10-18T21:32:17.951Z,4.65
2023-10-18T21:35:22.925Z,4.72
2023-10-18T21:38:24.729Z,4.74
2023-10-18T21:41:27.006Z,4.66
2023-10-18T21:44:28.988Z,4.50
2023-10-18T21:47:31.025Z,4.70
2023-10-18T21:50:32.843Z,4.72
2023-10-18T21:53:34.640Z,4.74
2023-10-18T21:56:36.538Z,4.84
2023-10-18T21:59:38.340Z,4.79
2023-10-18T22:02:41.845Z,5.09
2023-10-18T22:05:46.443Z,5.12
2023-10-18T22:08:48.242Z,5.17
2023-10-18T22:11:50.374Z,5.37
2023-10-18T22:14:53.489Z,5.63
2023-10-18T22:17:55.308Z,5.62
2023-10-18T22:21:01.123Z,5.74
2023-10-18T22:24:04.534Z,5.90
2023-10-18T22:27:06.940Z,5.87
2023-10-18T22:30:17.167Z,5.96
2023-10-18T22:33:22.488Z,6.12
2023-10-18T22:36:24.559Z,6.31
2023-10-18T22:39:34.875Z,6.40
2023-10-18T22:42:40.762Z,6.43
2023-10-18T22:45:43.034Z,6.53
2023-10-18T22:48:52.014Z,6.67
2023-10-18T22:52:00.255Z,6.90
2023-10-18T22:55:20.421Z,6.97
2023-10-18T22:58:27.103Z,7.16
2023-10-18T23:01:29.196Z,7.43
2023-10-18T23:04:37.649Z,7.66
2023-10-18T23:07:40.093Z,7.75
2023-10-18T23:10:51.421Z,7.90
2023-10-18T23:13:56.347Z,8.05
2023-10-18T23:17:01.219Z,8.16
2023-10-18T23:20:11.700Z,8.14
2023-10-18T23:23:13.517Z,8.33
2023-10-18T23:26:33.841Z,8.42
2023-10-18T23:29:41.567Z,8.45
2023-10-18T23:32:55.299Z,8.56
2023-10-18T23:35:58.788Z,8.67
2023-10-18T23:39:10.243Z,8.79
2023-10-18T23:42:26.758Z,8.80
2023-10-18T23:45:33.191Z,8.73
2023-10-18T23:49:04.199Z,8.84
2023-10-18T23:52:08.702Z,8.84
2023-10-18T23:55:15.038Z,8.84
2023-10-18T23:58:16.938Z,8.94
